sensor_id;sensor_type;location;lat;lon;timestamp;P1;durP1;ratioP1;P2;durP2;ratioP2
48861;SDS011;34681;49.188;-0.374;2024-01-30T00:01:16;10.13;;;9.03;;
48861;SDS011;34681;49.188;-0.374;2024-01-30T00:03:41;14.07;;;10.10;;
48861;SDS011;34681;49.188;-0.374;2024-01-30T00:06:07;11.30;;;9.70;;
48861;SDS011;34681;49.188;-0.374;2024-01-30T00:08:33;13.23;;;10.07;;
48861;SDS011;34681;49.188;-0.374;2024-01-30T00:10:58;11.00;;;8.70;;
48861;SDS011;34681;49.188;-0.374;2024-01-30T00:13:24;11.23;;;10.13;;
48861;SDS011;34681;49.188;-0.374;2024-01-30T00:15:49;11.20;;;10.10;;
48861;SDS011;34681;49.188;-0.374;2024-01-30T00:18:14;12.20;;;9.90;;
48861;SDS011;34681;49.188;-0.374;2024-01-30T00:20:40;15.90;;;10.93;;
48861;SDS011;34681;49.188;-0.374;2024-01-30T00:23:05;15.30;;;10.70;;
48861;SDS011;34681;49.188;-0.374;2024-01-30T00:25:31;13.60;;;11.20;;
48861;SDS011;34681;49.188;-0.374;2024-01-30T00:27:58;12.00;;;11.00;;
48861;SDS011;34681;49.188;-0.374;2024-01-30T00:30:23;12.07;;;10.93;;
48861;SDS011;34681;49.188;-0.374;2024-01-30T00:32:49;12.43;;;11.20;;
48861;SDS011;34681;49.188;-0.374;2024-01-30T00:35:14;12.37;;;11.17;;
48861;SDS011;34681;49.188;-0.374;2024-01-30T00:37:39;12.70;;;11.40;;
48861;SDS011;34681;49.188;-0.374;2024-01-30T00:40:05;16.70;;;10.53;;
48861;SDS011;34681;49.188;-0.374;2024-01-30T00:42:31;16.23;;;11.20;;
48861;SDS011;34681;49.188;-0.374;2024-01-30T00:44:56;12.70;;;11.37;;
48861;SDS011;34681;49.188;-0.374;2024-01-30T00:47:22;12.47;;;11.37;;
48861;SDS011;34681;49.188;-0.374;2024-01-30T00:49:47;12.63;;;11.33;;
48861;SDS011;34681;49.188;-0.374;2024-01-30T00:52:12;15.10;;;10.33;;
48861;SDS011;34681;49.188;-0.374;2024-01-30T00:54:37;18.50;;;11.13;;
48861;SDS011;34681;49.188;-0.374;2024-01-30T00:57:03;16.70;;;11.37;;
48861;SDS011;34681;49.188;-0.374;2024-01-30T00:59:28;14.07;;;11.03;;
48861;SDS011;34681;49.188;-0.374;2024-01-30T01:01:54;11.73;;;10.63;;
48861;SDS011;34681;49.188;-0.374;2024-01-30T01:04:19;11.30;;;10.20;;
48861;SDS011;34681;49.188;-0.374;2024-01-30T01:06:46;11.87;;;10.67;;
48861;SDS011;34681;49.188;-0.374;2024-01-30T01:09:11;12.33;;;11.03;;
48861;SDS011;34681;49.188;-0.374;2024-01-30T01:11:37;12.60;;;11.40;;
48861;SDS011;34681;49.188;-0.374;2024-01-30T01:14:03;12.40;;;11.23;;
48861;SDS011;34681;49.188;-0.374;2024-01-30T01:16:29;16.40;;;11.30;;
48861;SDS011;34681;49.188;-0.374;2024-01-30T01:18:54;15.60;;;11.87;;
48861;SDS011;34681;49.188;-0.374;2024-01-30T01:21:20;12.60;;;10.40;;
48861;SDS011;34681;49.188;-0.374;2024-01-30T01:23:45;11.00;;;10.00;;
48861;SDS011;34681;49.188;-0.374;2024-01-30T01:26:10;15.03;;;10.87;;
48861;SDS011;34681;49.188;-0.374;2024-01-30T01:28:36;13.37;;;10.77;;
48861;SDS011;34681;49.188;-0.374;2024-01-30T01:31:01;14.57;;;11.80;;
48861;SDS011;34681;49.188;-0.374;2024-01-30T01:33:30;14.30;;;10.90;;
48861;SDS011;34681;49.188;-0.374;2024-01-30T01:35:57;13.47;;;10.43;;
48861;SDS011;34681;49.188;-0.374;2024-01-30T01:38:23;13.40;;;10.73;;
48861;SDS011;34681;49.188;-0.374;2024-01-30T01:40:48;14.43;;;10.20;;
48861;SDS011;34681;49.188;-0.374;2024-01-30T01:43:13;13.33;;;9.60;;
48861;SDS011;34681;49.188;-0.374;2024-01-30T01:45:39;13.13;;;11.83;;
48861;SDS011;34681;49.188;-0.374;2024-01-30T01:48:04;12.67;;;9.30;;
48861;SDS011;34681;49.188;-0.374;2024-01-30T01:50:30;10.80;;;9.80;;
48861;SDS011;34681;49.188;-0.374;2024-01-30T01:52:55;13.33;;;10.63;;
48861;SDS011;34681;49.188;-0.374;2024-01-30T01:55:21;10.90;;;9.73;;
48861;SDS011;34681;49.188;-0.374;2024-01-30T01:57:49;12.53;;;10.30;;
48861;SDS011;34681;49.188;-0.374;2024-01-30T02:00:14;13.13;;;11.27;;
48861;SDS011;34681;49.188;-0.374;2024-01-30T02:02:40;10.53;;;9.53;;
48861;SDS011;34681;49.188;-0.374;2024-01-30T02:05:06;12.70;;;10.17;;
48861;SDS011;34681;49.188;-0.374;2024-01-30T02:07:32;15.70;;;10.80;;
48861;SDS011;34681;49.188;-0.374;2024-01-30T02:09:58;11.83;;;9.20;;
48861;SDS011;34681;49.188;-0.374;2024-01-30T02:12:23;13.93;;;10.77;;
48861;SDS011;34681;49.188;-0.374;2024-01-30T02:14:49;14.73;;;11.07;;
48861;SDS011;34681;49.188;-0.374;2024-01-30T02:17:16;12.00;;;10.03;;
48861;SDS011;34681;49.188;-0.374;2024-01-30T02:19:42;13.40;;;11.50;;
48861;SDS011;34681;49.188;-0.374;2024-01-30T02:22:07;12.23;;;9.50;;
48861;SDS011;34681;49.188;-0.374;2024-01-30T02:24:33;10.20;;;9.30;;
48861;SDS011;34681;49.188;-0.374;2024-01-30T02:26:59;12.30;;;9.57;;
48861;SDS011;34681;49.188;-0.374;2024-01-30T02:29:24;12.57;;;9.77;;
48861;SDS011;34681;49.188;-0.374;2024-01-30T02:31:49;17.90;;;9.40;;
48861;SDS011;34681;49.188;-0.374;2024-01-30T02:34:15;9.77;;;8.83;;
48861;SDS011;34681;49.188;-0.374;2024-01-30T02:36:43;8.57;;;7.80;;
48861;SDS011;34681;49.188;-0.374;2024-01-30T02:39:09;10.13;;;8.20;;
48861;SDS011;34681;49.188;-0.374;2024-01-30T02:41:35;11.10;;;7.70;;
48861;SDS011;34681;49.188;-0.374;2024-01-30T02:44:01;11.20;;;8.10;;
48861;SDS011;34681;49.188;-0.374;2024-01-30T02:46:26;11.27;;;7.50;;
48861;SDS011;34681;49.188;-0.374;2024-01-30T02:48:52;14.20;;;9.00;;
48861;SDS011;34681;49.188;-0.374;2024-01-30T02:51:17;9.10;;;8.30;;
48861;SDS011;34681;49.188;-0.374;2024-01-30T02:53:42;12.13;;;9.13;;
48861;SDS011;34681;49.188;-0.374;2024-01-30T02:56:08;9.37;;;8.47;;
48861;SDS011;34681;49.188;-0.374;2024-01-30T02:58:35;11.90;;;7.87;;
48861;SDS011;34681;49.188;-0.374;2024-01-30T03:01:01;7.60;;;6.37;;
48861;SDS011;34681;49.188;-0.374;2024-01-30T03:03:27;12.70;;;8.20;;
48861;SDS011;34681;49.188;-0.374;2024-01-30T03:05:52;14.47;;;7.30;;
48861;SDS011;34681;49.188;-0.374;2024-01-30T03:08:17;7.57;;;5.60;;
48861;SDS011;34681;49.188;-0.374;2024-01-30T03:10:43;14.00;;;5.33;;
48861;SDS011;34681;49.188;-0.374;2024-01-30T03:13:08;6.90;;;4.20;;
48861;SDS011;34681;49.188;-0.374;2024-01-30T03:15:33;10.23;;;3.97;;
48861;SDS011;34681;49.188;-0.374;2024-01-30T03:17:59;6.83;;;3.67;;
48861;SDS011;34681;49.188;-0.374;2024-01-30T03:20:24;8.30;;;4.20;;
48861;SDS011;34681;49.188;-0.374;2024-01-30T03:22:49;10.33;;;3.60;;
48861;SDS011;34681;49.188;-0.374;2024-01-30T03:25:15;7.83;;;3.20;;
48861;SDS011;34681;49.188;-0.374;2024-01-30T03:27:40;8.77;;;3.70;;
48861;SDS011;34681;49.188;-0.374;2024-01-30T03:30:06;6.93;;;2.80;;
48861;SDS011;34681;49.188;-0.374;2024-01-30T03:32:31;6.83;;;2.80;;
48861;SDS011;34681;49.188;-0.374;2024-01-30T03:34:57;3.97;;;2.60;;
48861;SDS011;34681;49.188;-0.374;2024-01-30T03:37:23;7.47;;;3.27;;
48861;SDS011;34681;49.188;-0.374;2024-01-30T03:39:48;4.40;;;2.20;;
48861;SDS011;34681;49.188;-0.374;2024-01-30T03:42:14;2.83;;;2.10;;
48861;SDS011;34681;49.188;-0.374;2024-01-30T03:44:39;5.67;;;2.23;;
48861;SDS011;34681;49.188;-0.374;2024-01-30T03:47:05;4.50;;;2.00;;
48861;SDS011;34681;49.188;-0.374;2024-01-30T03:49:30;5.13;;;2.20;;
48861;SDS011;34681;49.188;-0.374;2024-01-30T03:51:55;5.30;;;2.00;;
48861;SDS011;34681;49.188;-0.374;2024-01-30T03:54:20;5.67;;;2.43;;
48861;SDS011;34681;49.188;-0.374;2024-01-30T03:56:46;2.17;;;1.67;;
48861;SDS011;34681;49.188;-0.374;2024-01-30T03:59:11;2.40;;;1.53;;
48861;SDS011;34681;49.188;-0.374;2024-01-30T04:01:37;3.57;;;1.90;;
48861;SDS011;34681;49.188;-0.374;2024-01-30T04:04:02;3.97;;;1.60;;
48861;SDS011;34681;49.188;-0.374;2024-01-30T04:06:27;3.53;;;1.80;;
48861;SDS011;34681;49.188;-0.374;2024-01-30T04:08:53;2.27;;;1.60;;
48861;SDS011;34681;49.188;-0.374;2024-01-30T04:11:18;8.00;;;2.10;;
48861;SDS011;34681;49.188;-0.374;2024-01-30T04:13:45;5.33;;;2.10;;
48861;SDS011;34681;49.188;-0.374;2024-01-30T04:16:18;3.20;;;1.80;;
48861;SDS011;34681;49.188;-0.374;2024-01-30T04:18:45;4.70;;;1.93;;
48861;SDS011;34681;49.188;-0.374;2024-01-30T04:21:11;4.10;;;2.07;;
48861;SDS011;34681;49.188;-0.374;2024-01-30T04:23:36;1.97;;;1.63;;
48861;SDS011;34681;49.188;-0.374;2024-01-30T04:26:01;2.17;;;1.40;;
48861;SDS011;34681;49.188;-0.374;2024-01-30T04:28:27;2.80;;;1.80;;
48861;SDS011;34681;49.188;-0.374;2024-01-30T04:30:53;2.27;;;1.60;;
48861;SDS011;34681;49.188;-0.374;2024-01-30T04:33:19;2.03;;;1.40;;
48861;SDS011;34681;49.188;-0.374;2024-01-30T04:35:44;2.90;;;1.80;;
48861;SDS011;34681;49.188;-0.374;2024-01-30T04:38:09;2.47;;;1.30;;
48861;SDS011;34681;49.188;-0.374;2024-01-30T04:40:35;3.97;;;1.67;;
48861;SDS011;34681;49.188;-0.374;2024-01-30T04:43:00;1.80;;;1.40;;
48861;SDS011;34681;49.188;-0.374;2024-01-30T04:45:25;3.40;;;1.80;;
48861;SDS011;34681;49.188;-0.374;2024-01-30T04:47:51;2.50;;;2.13;;
48861;SDS011;34681;49.188;-0.374;2024-01-30T04:50:16;4.97;;;1.80;;
48861;SDS011;34681;49.188;-0.374;2024-01-30T04:52:41;2.97;;;1.33;;
48861;SDS011;34681;49.188;-0.374;2024-01-30T04:55:07;1.93;;;1.53;;
48861;SDS011;34681;49.188;-0.374;2024-01-30T04:57:32;3.50;;;1.83;;
48861;SDS011;34681;49.188;-0.374;2024-01-30T04:59:58;4.17;;;1.30;;
48861;SDS011;34681;49.188;-0.374;2024-01-30T05:02:24;1.30;;;1.20;;
48861;SDS011;34681;49.188;-0.374;2024-01-30T05:04:49;1.87;;;1.20;;
48861;SDS011;34681;49.188;-0.374;2024-01-30T05:07:14;2.50;;;1.20;;
48861;SDS011;34681;49.188;-0.374;2024-01-30T05:09:40;2.70;;;1.13;;
48861;SDS011;34681;49.188;-0.374;2024-01-30T05:12:06;2.07;;;1.00;;
48861;SDS011;34681;49.188;-0.374;2024-01-30T05:14:32;2.60;;;1.03;;
48861;SDS011;34681;49.188;-0.374;2024-01-30T05:16:57;1.40;;;1.30;;
48861;SDS011;34681;49.188;-0.374;2024-01-30T05:19:22;4.33;;;1.50;;
48861;SDS011;34681;49.188;-0.374;2024-01-30T05:21:48;1.73;;;1.30;;
48861;SDS011;34681;49.188;-0.374;2024-01-30T05:24:14;2.17;;;1.20;;
48861;SDS011;34681;49.188;-0.374;2024-01-30T05:26:39;1.37;;;1.20;;
48861;SDS011;34681;49.188;-0.374;2024-01-30T05:29:05;2.80;;;1.00;;
48861;SDS011;34681;49.188;-0.374;2024-01-30T05:31:30;1.37;;;0.87;;
48861;SDS011;34681;49.188;-0.374;2024-01-30T05:33:56;0.80;;;0.80;;
48861;SDS011;34681;49.188;-0.374;2024-01-30T05:36:21;2.10;;;1.00;;
48861;SDS011;34681;49.188;-0.374;2024-01-30T05:38:47;1.07;;;0.97;;
48861;SDS011;34681;49.188;-0.374;2024-01-30T05:41:12;0.70;;;0.70;;
48861;SDS011;34681;49.188;-0.374;2024-01-30T05:43:37;0.80;;;0.80;;
48861;SDS011;34681;49.188;-0.374;2024-01-30T05:46:02;1.30;;;0.70;;
48861;SDS011;34681;49.188;-0.374;2024-01-30T05:48:28;1.27;;;0.80;;
48861;SDS011;34681;49.188;-0.374;2024-01-30T05:50:53;1.33;;;0.73;;
48861;SDS011;34681;49.188;-0.374;2024-01-30T05:53:19;1.00;;;0.77;;
48861;SDS011;34681;49.188;-0.374;2024-01-30T05:55:44;1.10;;;0.80;;
48861;SDS011;34681;49.188;-0.374;2024-01-30T05:58:09;0.80;;;0.77;;
48861;SDS011;34681;49.188;-0.374;2024-01-30T06:00:34;2.30;;;1.13;;
48861;SDS011;34681;49.188;-0.374;2024-01-30T06:03:00;1.93;;;1.03;;
48861;SDS011;34681;49.188;-0.374;2024-01-30T06:05:25;1.00;;;0.70;;
48861;SDS011;34681;49.188;-0.374;2024-01-30T06:07:50;1.50;;;0.80;;
48861;SDS011;34681;49.188;-0.374;2024-01-30T06:10:16;0.90;;;0.90;;
48861;SDS011;34681;49.188;-0.374;2024-01-30T06:12:41;1.47;;;1.27;;
48861;SDS011;34681;49.188;-0.374;2024-01-30T06:15:06;0.70;;;0.70;;
48861;SDS011;34681;49.188;-0.374;2024-01-30T06:17:32;1.40;;;0.90;;
48861;SDS011;34681;49.188;-0.374;2024-01-30T06:19:58;0.80;;;0.80;;
48861;SDS011;34681;49.188;-0.374;2024-01-30T06:22:23;0.97;;;0.87;;
48861;SDS011;34681;49.188;-0.374;2024-01-30T06:24:48;1.10;;;1.00;;
48861;SDS011;34681;49.188;-0.374;2024-01-30T06:27:14;0.80;;;0.80;;
48861;SDS011;34681;49.188;-0.374;2024-01-30T06:29:40;1.70;;;0.90;;
48861;SDS011;34681;49.188;-0.374;2024-01-30T06:32:06;0.80;;;0.80;;
48861;SDS011;34681;49.188;-0.374;2024-01-30T06:34:31;1.07;;;0.90;;
48861;SDS011;34681;49.188;-0.374;2024-01-30T06:36:56;1.27;;;1.07;;
48861;SDS011;34681;49.188;-0.374;2024-01-30T06:39:22;1.47;;;1.00;;
48861;SDS011;34681;49.188;-0.374;2024-01-30T06:41:48;0.90;;;0.90;;
48861;SDS011;34681;49.188;-0.374;2024-01-30T06:44:13;0.90;;;0.90;;
48861;SDS011;34681;49.188;-0.374;2024-01-30T06:46:39;2.40;;;0.80;;
48861;SDS011;34681;49.188;-0.374;2024-01-30T06:49:04;3.03;;;1.00;;
48861;SDS011;34681;49.188;-0.374;2024-01-30T06:51:30;1.10;;;1.10;;
48861;SDS011;34681;49.188;-0.374;2024-01-30T06:53:55;1.50;;;1.40;;
48861;SDS011;34681;49.188;-0.374;2024-01-30T06:56:20;2.50;;;1.53;;
48861;SDS011;34681;49.188;-0.374;2024-01-30T06:58:49;1.80;;;1.70;;
48861;SDS011;34681;49.188;-0.374;2024-01-30T07:01:15;1.60;;;1.50;;
48861;SDS011;34681;49.188;-0.374;2024-01-30T07:03:41;1.57;;;1.47;;
48861;SDS011;34681;49.188;-0.374;2024-01-30T07:06:07;2.00;;;1.80;;
48861;SDS011;34681;49.188;-0.374;2024-01-30T07:08:33;1.53;;;1.43;;
48861;SDS011;34681;49.188;-0.374;2024-01-30T07:10:58;1.83;;;1.57;;
48861;SDS011;34681;49.188;-0.374;2024-01-30T07:13:24;1.30;;;1.20;;
48861;SDS011;34681;49.188;-0.374;2024-01-30T07:15:49;1.70;;;1.60;;
48861;SDS011;34681;49.188;-0.374;2024-01-30T07:18:15;1.50;;;1.40;;
48861;SDS011;34681;49.188;-0.374;2024-01-30T07:20:40;1.67;;;1.57;;
48861;SDS011;34681;49.188;-0.374;2024-01-30T07:23:14;2.50;;;2.30;;
48861;SDS011;34681;49.188;-0.374;2024-01-30T07:25:41;2.07;;;1.90;;
48861;SDS011;34681;49.188;-0.374;2024-01-30T07:28:07;2.57;;;2.37;;
48861;SDS011;34681;49.188;-0.374;2024-01-30T07:30:37;2.47;;;2.27;;
48861;SDS011;34681;49.188;-0.374;2024-01-30T07:33:03;1.60;;;1.50;;
48861;SDS011;34681;49.188;-0.374;2024-01-30T07:35:29;1.90;;;1.70;;
48861;SDS011;34681;49.188;-0.374;2024-01-30T07:37:54;3.13;;;1.50;;
48861;SDS011;34681;49.188;-0.374;2024-01-30T07:40:19;1.87;;;1.50;;
48861;SDS011;34681;49.188;-0.374;2024-01-30T07:42:45;1.60;;;1.50;;
48861;SDS011;34681;49.188;-0.374;2024-01-30T07:45:10;1.50;;;1.40;;
48861;SDS011;34681;49.188;-0.374;2024-01-30T07:47:35;1.20;;;1.17;;
48861;SDS011;34681;49.188;-0.374;2024-01-30T07:50:01;2.70;;;1.30;;
48861;SDS011;34681;49.188;-0.374;2024-01-30T07:52:26;1.63;;;1.53;;
48861;SDS011;34681;49.188;-0.374;2024-01-30T07:54:52;1.83;;;1.50;;
48861;SDS011;34681;49.188;-0.374;2024-01-30T07:57:17;1.30;;;1.20;;
48861;SDS011;34681;49.188;-0.374;2024-01-30T07:59:43;1.40;;;1.30;;
48861;SDS011;34681;49.188;-0.374;2024-01-30T08:02:09;2.40;;;1.60;;
48861;SDS011;34681;49.188;-0.374;2024-01-30T08:04:37;3.50;;;1.97;;
48861;SDS011;34681;49.188;-0.374;2024-01-30T08:07:03;10.00;;;2.67;;
48861;SDS011;34681;49.188;-0.374;2024-01-30T08:09:28;7.40;;;2.63;;
48861;SDS011;34681;49.188;-0.374;2024-01-30T08:11:53;18.07;;;4.83;;
48861;SDS011;34681;49.188;-0.374;2024-01-30T08:14:19;6.23;;;2.90;;
48861;SDS011;34681;49.188;-0.374;2024-01-30T08:16:44;12.60;;;2.80;;
48861;SDS011;34681;49.188;-0.374;2024-01-30T08:19:09;1.93;;;1.70;;
48861;SDS011;34681;49.188;-0.374;2024-01-30T08:21:35;1.53;;;1.40;;
48861;SDS011;34681;49.188;-0.374;2024-01-30T08:24:04;1.47;;;1.30;;
48861;SDS011;34681;49.188;-0.374;2024-01-30T08:26:30;2.30;;;1.43;;
48861;SDS011;34681;49.188;-0.374;2024-01-30T08:28:56;2.40;;;1.60;;
48861;SDS011;34681;49.188;-0.374;2024-01-30T08:31:22;1.50;;;1.40;;
48861;SDS011;34681;49.188;-0.374;2024-01-30T08:33:47;2.10;;;1.90;;
48861;SDS011;34681;49.188;-0.374;2024-01-30T08:36:12;2.40;;;1.60;;
48861;SDS011;34681;49.188;-0.374;2024-01-30T08:38:38;1.63;;;1.53;;
48861;SDS011;34681;49.188;-0.374;2024-01-30T08:41:03;2.57;;;1.53;;
48861;SDS011;34681;49.188;-0.374;2024-01-30T08:43:28;1.50;;;1.40;;
48861;SDS011;34681;49.188;-0.374;2024-01-30T08:45:54;1.60;;;1.50;;
48861;SDS011;34681;49.188;-0.374;2024-01-30T08:48:19;1.93;;;1.80;;
48861;SDS011;34681;49.188;-0.374;2024-01-30T08:50:44;1.90;;;1.80;;
48861;SDS011;34681;49.188;-0.374;2024-01-30T08:53:09;1.63;;;1.53;;
48861;SDS011;34681;49.188;-0.374;2024-01-30T08:55:35;1.87;;;1.40;;
48861;SDS011;34681;49.188;-0.374;2024-01-30T08:58:00;3.50;;;1.90;;
48861;SDS011;34681;49.188;-0.374;2024-01-30T09:00:25;1.77;;;1.67;;
48861;SDS011;34681;49.188;-0.374;2024-01-30T09:02:51;4.17;;;1.97;;
48861;SDS011;34681;49.188;-0.374;2024-01-30T09:05:16;5.43;;;2.13;;
48861;SDS011;34681;49.188;-0.374;2024-01-30T09:07:41;2.87;;;1.90;;
48861;SDS011;34681;49.188;-0.374;2024-01-30T09:10:07;2.43;;;1.70;;
48861;SDS011;34681;49.188;-0.374;2024-01-30T09:12:32;2.13;;;1.53;;
48861;SDS011;34681;49.188;-0.374;2024-01-30T09:14:58;1.80;;;1.70;;
48861;SDS011;34681;49.188;-0.374;2024-01-30T09:17:23;2.27;;;1.70;;
48861;SDS011;34681;49.188;-0.374;2024-01-30T09:19:48;2.90;;;1.57;;
48861;SDS011;34681;49.188;-0.374;2024-01-30T09:22:14;1.80;;;1.70;;
48861;SDS011;34681;49.188;-0.374;2024-01-30T09:24:40;4.80;;;1.93;;
48861;SDS011;34681;49.188;-0.374;2024-01-30T09:27:05;2.30;;;1.40;;
48861;SDS011;34681;49.188;-0.374;2024-01-30T09:29:31;6.53;;;1.60;;
48861;SDS011;34681;49.188;-0.374;2024-01-30T09:31:58;2.87;;;2.10;;
48861;SDS011;34681;49.188;-0.374;2024-01-30T09:34:23;1.53;;;1.43;;
48861;SDS011;34681;49.188;-0.374;2024-01-30T09:36:48;2.10;;;1.90;;
48861;SDS011;34681;49.188;-0.374;2024-01-30T09:39:14;3.80;;;1.57;;
48861;SDS011;34681;49.188;-0.374;2024-01-30T09:41:49;2.57;;;1.60;;
48861;SDS011;34681;49.188;-0.374;2024-01-30T09:44:20;2.13;;;1.70;;
48861;SDS011;34681;49.188;-0.374;2024-01-30T09:46:48;2.20;;;2.00;;
48861;SDS011;34681;49.188;-0.374;2024-01-30T09:49:14;4.70;;;2.20;;
48861;SDS011;34681;49.188;-0.374;2024-01-30T09:51:40;3.13;;;2.93;;
48861;SDS011;34681;49.188;-0.374;2024-01-30T09:54:06;3.80;;;3.60;;
48861;SDS011;34681;49.188;-0.374;2024-01-30T09:56:34;2.30;;;2.20;;
48861;SDS011;34681;49.188;-0.374;2024-01-30T09:59:00;3.43;;;2.17;;
48861;SDS011;34681;49.188;-0.374;2024-01-30T10:01:25;1.90;;;1.80;;
48861;SDS011;34681;49.188;-0.374;2024-01-30T10:03:50;2.07;;;1.87;;
48861;SDS011;34681;49.188;-0.374;2024-01-30T10:06:17;1.77;;;1.30;;
48861;SDS011;34681;49.188;-0.374;2024-01-30T10:08:43;2.90;;;1.50;;
48861;SDS011;34681;49.188;-0.374;2024-01-30T10:11:09;1.20;;;1.10;;
48861;SDS011;34681;49.188;-0.374;2024-01-30T10:13:34;3.13;;;1.43;;
48861;SDS011;34681;49.188;-0.374;2024-01-30T10:16:00;3.10;;;2.20;;
48861;SDS011;34681;49.188;-0.374;2024-01-30T10:18:28;3.23;;;2.57;;
48861;SDS011;34681;49.188;-0.374;2024-01-30T10:20:53;2.90;;;1.80;;
48861;SDS011;34681;49.188;-0.374;2024-01-30T10:23:19;1.77;;;1.37;;
48861;SDS011;34681;49.188;-0.374;2024-01-30T10:25:45;2.40;;;1.30;;
48861;SDS011;34681;49.188;-0.374;2024-01-30T10:28:11;1.30;;;1.20;;
48861;SDS011;34681;49.188;-0.374;2024-01-30T10:30:36;1.43;;;1.33;;
48861;SDS011;34681;49.188;-0.374;2024-01-30T10:33:01;3.20;;;1.80;;
48861;SDS011;34681;49.188;-0.374;2024-01-30T10:35:27;1.50;;;1.40;;
48861;SDS011;34681;49.188;-0.374;2024-01-30T10:37:52;3.93;;;3.20;;
48861;SDS011;34681;49.188;-0.374;2024-01-30T10:40:22;12.83;;;6.80;;
48861;SDS011;34681;49.188;-0.374;2024-01-30T10:42:52;11.70;;;6.43;;
48861;SDS011;34681;49.188;-0.374;2024-01-30T10:45:20;18.20;;;9.77;;
48861;SDS011;34681;49.188;-0.374;2024-01-30T10:47:50;7.00;;;5.50;;
48861;SDS011;34681;49.188;-0.374;2024-01-30T10:50:19;2.20;;;2.10;;
48861;SDS011;34681;49.188;-0.374;2024-01-30T10:52:45;3.20;;;1.67;;
48861;SDS011;34681;49.188;-0.374;2024-01-30T10:55:12;2.70;;;1.47;;
48861;SDS011;34681;49.188;-0.374;2024-01-30T10:57:38;1.87;;;1.77;;
48861;SDS011;34681;49.188;-0.374;2024-01-30T11:00:08;2.27;;;1.17;;
48861;SDS011;34681;49.188;-0.374;2024-01-30T11:02:36;5.30;;;1.90;;
48861;SDS011;34681;49.188;-0.374;2024-01-30T11:05:04;2.27;;;1.53;;
48861;SDS011;34681;49.188;-0.374;2024-01-30T11:07:30;3.90;;;1.73;;
48861;SDS011;34681;49.188;-0.374;2024-01-30T11:12:24;5.30;;;2.63;;
48861;SDS011;34681;49.188;-0.374;2024-01-30T11:15:06;1.67;;;1.57;;
48861;SDS011;34681;49.188;-0.374;2024-01-30T11:17:47;4.03;;;1.50;;
48861;SDS011;34681;49.188;-0.374;2024-01-30T11:22:48;2.20;;;1.53;;
48861;SDS011;34681;49.188;-0.374;2024-01-30T11:25:16;2.73;;;1.43;;
48861;SDS011;34681;49.188;-0.374;2024-01-30T11:27:43;1.83;;;1.30;;
48861;SDS011;34681;49.188;-0.374;2024-01-30T11:30:09;1.97;;;1.53;;
48861;SDS011;34681;49.188;-0.374;2024-01-30T11:32:35;1.97;;;1.47;;
48861;SDS011;34681;49.188;-0.374;2024-01-30T11:35:03;1.40;;;1.17;;
48861;SDS011;34681;49.188;-0.374;2024-01-30T11:37:31;1.80;;;1.47;;
48861;SDS011;34681;49.188;-0.374;2024-01-30T11:39:56;3.10;;;2.20;;
48861;SDS011;34681;49.188;-0.374;2024-01-30T11:42:23;3.17;;;1.50;;
48861;SDS011;34681;49.188;-0.374;2024-01-30T11:44:50;5.20;;;1.57;;
48861;SDS011;34681;49.188;-0.374;2024-01-30T11:47:16;1.37;;;1.23;;
48861;SDS011;34681;49.188;-0.374;2024-01-30T11:49:41;1.37;;;1.27;;
48861;SDS011;34681;49.188;-0.374;2024-01-30T11:52:08;1.47;;;1.37;;
48861;SDS011;34681;49.188;-0.374;2024-01-30T11:54:34;1.40;;;1.10;;
48861;SDS011;34681;49.188;-0.374;2024-01-30T11:56:59;1.60;;;1.20;;
48861;SDS011;34681;49.188;-0.374;2024-01-30T11:59:25;5.00;;;1.50;;
48861;SDS011;34681;49.188;-0.374;2024-01-30T12:01:51;2.33;;;1.20;;
48861;SDS011;34681;49.188;-0.374;2024-01-30T12:04:17;1.40;;;1.20;;
48861;SDS011;34681;49.188;-0.374;2024-01-30T12:06:42;2.20;;;1.27;;
48861;SDS011;34681;49.188;-0.374;2024-01-30T12:09:08;1.70;;;1.10;;
48861;SDS011;34681;49.188;-0.374;2024-01-30T12:11:47;1.30;;;1.20;;
48861;SDS011;34681;49.188;-0.374;2024-01-30T12:14:14;1.83;;;1.20;;
48861;SDS011;34681;49.188;-0.374;2024-01-30T12:16:41;2.10;;;1.10;;
48861;SDS011;34681;49.188;-0.374;2024-01-30T12:19:07;2.80;;;1.50;;
48861;SDS011;34681;49.188;-0.374;2024-01-30T12:21:33;1.73;;;1.50;;
48861;SDS011;34681;49.188;-0.374;2024-01-30T12:23:59;1.17;;;1.10;;
48861;SDS011;34681;49.188;-0.374;2024-01-30T12:26:25;1.47;;;1.30;;
48861;SDS011;34681;49.188;-0.374;2024-01-30T12:28:53;3.17;;;1.43;;
48861;SDS011;34681;49.188;-0.374;2024-01-30T12:31:31;3.90;;;1.77;;
48861;SDS011;34681;49.188;-0.374;2024-01-30T12:33:59;2.73;;;1.83;;
48861;SDS011;34681;49.188;-0.374;2024-01-30T12:36:24;2.03;;;1.60;;
48861;SDS011;34681;49.188;-0.374;2024-01-30T12:38:50;1.63;;;1.53;;
48861;SDS011;34681;49.188;-0.374;2024-01-30T12:41:16;2.50;;;1.40;;
48861;SDS011;34681;49.188;-0.374;2024-01-30T12:43:41;1.63;;;1.40;;
48861;SDS011;34681;49.188;-0.374;2024-01-30T12:46:07;1.60;;;1.13;;
48861;SDS011;34681;49.188;-0.374;2024-01-30T12:48:33;2.67;;;2.00;;
48861;SDS011;34681;49.188;-0.374;2024-01-30T12:50:58;2.10;;;1.90;;
48861;SDS011;34681;49.188;-0.374;2024-01-30T12:53:23;1.93;;;1.80;;
48861;SDS011;34681;49.188;-0.374;2024-01-30T12:55:49;4.10;;;1.27;;
48861;SDS011;34681;49.188;-0.374;2024-01-30T12:58:15;3.87;;;1.60;;
48861;SDS011;34681;49.188;-0.374;2024-01-30T13:00:41;2.60;;;1.40;;
48861;SDS011;34681;49.188;-0.374;2024-01-30T13:03:08;3.00;;;1.30;;
48861;SDS011;34681;49.188;-0.374;2024-01-30T13:05:34;1.50;;;1.10;;
48861;SDS011;34681;49.188;-0.374;2024-01-30T13:07:59;1.47;;;1.37;;
48861;SDS011;34681;49.188;-0.374;2024-01-30T13:10:24;1.33;;;1.20;;
48861;SDS011;34681;49.188;-0.374;2024-01-30T13:12:50;1.80;;;1.57;;
48861;SDS011;34681;49.188;-0.374;2024-01-30T13:15:16;4.43;;;1.40;;
48861;SDS011;34681;49.188;-0.374;2024-01-30T13:17:41;1.50;;;1.40;;
48861;SDS011;34681;49.188;-0.374;2024-01-30T13:20:07;2.53;;;1.53;;
48861;SDS011;34681;49.188;-0.374;2024-01-30T13:22:33;3.03;;;1.63;;
48861;SDS011;34681;49.188;-0.374;2024-01-30T13:24:58;2.40;;;1.33;;
48861;SDS011;34681;49.188;-0.374;2024-01-30T13:27:24;2.10;;;1.33;;
48861;SDS011;34681;49.188;-0.374;2024-01-30T13:29:49;2.50;;;1.77;;
48861;SDS011;34681;49.188;-0.374;2024-01-30T13:32:14;1.73;;;1.20;;
48861;SDS011;34681;49.188;-0.374;2024-01-30T13:34:40;3.50;;;1.17;;
48861;SDS011;34681;49.188;-0.374;2024-01-30T13:37:06;2.60;;;1.77;;
48861;SDS011;34681;49.188;-0.374;2024-01-30T13:39:31;3.30;;;1.20;;
48861;SDS011;34681;49.188;-0.374;2024-01-30T13:41:56;1.30;;;1.20;;
48861;SDS011;34681;49.188;-0.374;2024-01-30T13:44:22;2.30;;;1.33;;
48861;SDS011;34681;49.188;-0.374;2024-01-30T13:46:47;2.03;;;1.43;;
48861;SDS011;34681;49.188;-0.374;2024-01-30T13:49:12;1.40;;;1.30;;
48861;SDS011;34681;49.188;-0.374;2024-01-30T13:51:38;1.53;;;1.20;;
48861;SDS011;34681;49.188;-0.374;2024-01-30T13:54:03;1.30;;;1.20;;
48861;SDS011;34681;49.188;-0.374;2024-01-30T13:56:28;1.77;;;1.67;;
48861;SDS011;34681;49.188;-0.374;2024-01-30T13:58:55;1.40;;;1.30;;
48861;SDS011;34681;49.188;-0.374;2024-01-30T14:01:21;4.50;;;1.37;;
48861;SDS011;34681;49.188;-0.374;2024-01-30T14:03:47;2.90;;;1.73;;
48861;SDS011;34681;49.188;-0.374;2024-01-30T14:06:12;1.97;;;1.40;;
48861;SDS011;34681;49.188;-0.374;2024-01-30T14:08:38;1.90;;;1.57;;
48861;SDS011;34681;49.188;-0.374;2024-01-30T14:11:04;1.60;;;1.50;;
48861;SDS011;34681;49.188;-0.374;2024-01-30T14:13:29;2.57;;;1.43;;
48861;SDS011;34681;49.188;-0.374;2024-01-30T14:15:55;1.43;;;1.00;;
48861;SDS011;34681;49.188;-0.374;2024-01-30T14:18:21;2.70;;;1.37;;
48861;SDS011;34681;49.188;-0.374;2024-01-30T14:20:46;1.17;;;1.10;;
48861;SDS011;34681;49.188;-0.374;2024-01-30T14:23:12;2.47;;;1.90;;
48861;SDS011;34681;49.188;-0.374;2024-01-30T14:25:37;2.73;;;2.27;;
48861;SDS011;34681;49.188;-0.374;2024-01-30T14:28:02;1.60;;;1.33;;